Time;durP1;ratioP1;P1;durP2;ratioP2;P2;SDS_P1;SDS_P2;PMS_P1;PMS_P2;Temp;Humidity;BMP_temperature;BMP_pressure;BME280_temperature;BME280_humidity;BME280_pressure;Samples;Min_cycle;Max_cycle;Signal;HPM_P1;HPM_P2
2021/09/24 00:00:49;;;;;;;3.72;3.13;;;;;;;18.49;71.28;101058.63;4975284;28;102565;-48
2021/09/24 00:03:15;;;;;;;3.40;2.60;;;;;;;18.48;71.69;101063.34;4983310;28;103986;-49
2021/09/24 00:05:42;;;;;;;2.70;2.42;;;;;;;18.47;71.55;101061.72;4982042;28;102770;-49
2021/09/24 00:08:09;;;;;;;2.83;2.53;;;;;;;18.47;71.31;101061.72;4988073;28;101982;-50
2021/09/24 00:10:36;;;;;;;3.10;2.80;;;;;;;18.48;71.87;101062.53;4981528;28;102622;-48
2021/09/24 00:13:06;;;;;;;3.63;3.22;;;;;;;18.48;71.19;101062.53;4980283;28;103481;-48
2021/09/24 00:15:35;;;;;;;3.28;2.75;;;;;;;18.47;71.65;101061.72;4985474;28;102373;-49
2021/09/24 00:18:07;;;;;;;3.10;2.72;;;;;;;18.46;71.35;101060.09;4986421;28;102458;-48
2021/09/24 00:20:34;;;;;;;2.93;2.57;;;;;;;18.46;71.44;101049.06;4979890;28;102476;-48
2021/09/24 00:23:04;;;;;;;3.28;2.40;;;;;;;18.47;71.85;101056.22;4974220;28;103930;-50
2021/09/24 00:25:31;;;;;;;3.53;2.70;;;;;;;18.47;71.82;101055.41;4992651;28;102595;-48
2021/09/24 00:28:05;;;;;;;3.00;2.70;;;;;;;18.46;71.26;101057.34;4980669;28;102175;-48
2021/09/24 00:30:33;;;;;;;3.22;2.63;;;;;;;18.47;71.40;101049.88;4975769;28;102275;-50
2021/09/24 00:33:00;;;;;;;2.83;2.60;;;;;;;18.46;71.35;101043.56;4986283;28;103924;-48
2021/09/24 00:35:29;;;;;;;2.88;2.50;;;;;;;18.46;71.68;101043.56;4981482;28;102372;-48
2021/09/24 00:37:55;;;;;;;3.92;3.05;;;;;;;18.46;71.26;101038.06;4986313;28;102579;-48
2021/09/24 00:40:21;;;;;;;3.20;2.80;;;;;;;18.46;71.41;101043.56;4975154;28;102268;-48
2021/09/24 00:42:48;;;;;;;2.63;2.42;;;;;;;18.46;71.45;101043.56;4982194;28;102545;-49
2021/09/24 00:45:15;;;;;;;3.30;3.00;;;;;;;18.46;71.87;101032.53;4980484;28;102589;-48
2021/09/24 00:47:42;;;;;;;3.05;2.65;;;;;;;18.45;71.72;101025.38;4982678;28;102608;-48
2021/09/24 00:50:10;;;;;;;3.28;2.88;;;;;;;18.46;71.74;101032.53;4979661;28;102435;-48
2021/09/24 00:52:38;;;;;;;2.78;2.47;;;;;;;18.46;71.68;101032.53;4985700;28;103939;-48
2021/09/24 00:55:06;;;;;;;3.55;3.10;;;;;;;18.45;71.39;101019.88;4982726;28;102141;-48
2021/09/24 00:57:33;;;;;;;3.08;2.58;;;;;;;18.46;71.41;101027.03;4981645;28;102178;-48
2021/09/24 00:59:59;;;;;;;3.53;2.85;;;;;;;18.45;71.26;101030.88;4982919;28;103915;-47
2021/09/24 01:02:26;;;;;;;4.60;2.70;;;;;;;18.46;71.84;101032.53;4978279;28;104274;-48
2021/09/24 01:04:52;;;;;;;2.80;2.60;;;;;;;18.45;71.27;101025.38;4978554;28;102712;-48
2021/09/24 01:07:19;;;;;;;4.18;3.20;;;;;;;18.45;71.92;101017.13;4983363;28;102455;-50
2021/09/24 01:09:47;;;;;;;5.60;2.90;;;;;;;18.45;71.80;101021.81;4982398;28;102264;-48
2021/09/24 01:12:15;;;;;;;2.95;2.35;;;;;;;18.46;71.65;101026.19;4972102;28;103445;-47
2021/09/24 01:14:42;;;;;;;2.90;2.70;;;;;;;18.45;71.17;101022.63;4984319;28;102323;-47
2021/09/24 01:17:11;;;;;;;2.85;2.63;;;;;;;18.45;71.83;101014.34;4985156;28;102129;-50
2021/09/24 01:19:38;;;;;;;3.25;2.95;;;;;;;18.46;71.84;101016.00;4988076;28;102236;-48
2021/09/24 01:22:11;;;;;;;4.05;2.80;;;;;;;18.45;72.01;101019.88;4977213;28;104532;-49
2021/09/24 01:24:38;;;;;;;2.97;2.63;;;;;;;18.45;71.81;101019.06;4982532;28;102601;-48
2021/09/24 01:27:04;;;;;;;3.03;2.63;;;;;;;18.45;71.37;101013.53;4971886;28;102556;-50
2021/09/24 01:29:36;;;;;;;3.50;2.80;;;;;;;18.45;71.75;101008.84;4984876;28;103457;-48
2021/09/24 01:32:04;;;;;;;2.88;2.53;;;;;;;18.45;71.35;101003.34;4982202;28;103901;-49
2021/09/24 01:34:31;;;;;;;3.03;2.72;;;;;;;18.45;71.95;101003.34;4985849;28;102450;-48
2021/09/24 01:36:57;;;;;;;2.90;2.35;;;;;;;18.44;71.56;100993.44;4979775;28;102531;-47
2021/09/24 01:39:26;;;;;;;3.35;2.85;;;;;;;18.44;71.62;100990.69;4978470;28;102287;-51
2021/09/24 01:41:52;;;;;;;5.83;2.53;;;;;;;18.44;71.48;100982.44;4976703;28;103924;-50
2021/09/24 01:44:19;;;;;;;3.15;2.60;;;;;;;18.45;71.80;100997.81;4976730;28;102398;-47
2021/09/24 01:46:46;;;;;;;2.97;2.47;;;;;;;18.44;71.87;100982.44;4974913;28;102387;-48
2021/09/24 01:49:14;;;;;;;2.90;2.37;;;;;;;18.44;71.42;100982.44;4986743;28;102535;-48
2021/09/24 01:51:43;;;;;;;2.75;2.55;;;;;;;18.45;71.78;100978.53;4979147;28;104120;-48
2021/09/24 01:54:11;;;;;;;3.72;2.38;;;;;;;18.44;71.61;100979.66;4980336;28;102560;-47
2021/09/24 01:56:39;;;;;;;2.70;2.47;;;;;;;18.45;71.86;100983.22;4974121;28;102447;-51
2021/09/24 01:59:06;;;;;;;3.07;2.77;;;;;;;18.43;71.55;100974.50;5005204;22;102678;-49
2021/09/24 02:01:33;;;;;;;2.50;2.30;;;;;;;18.43;71.89;100983.56;5003697;27;103919;-49
2021/09/24 02:04:01;;;;;;;2.80;2.50;;;;;;;18.44;71.69;100973.34;5010870;28;102527;-48
2021/09/24 02:06:30;;;;;;;;;;;;;;;18.44;71.65;100965.91;5006160;28;102061;-48
2021/09/24 02:08:57;;;;;;;2.60;2.40;;;;;;;18.44;71.88;100962.34;5011269;28;102594;-48
2021/09/24 02:11:24;;;;;;;4.15;2.60;;;;;;;18.44;71.78;100951.31;5009267;28;104090;-48
2021/09/24 02:13:53;;;;;;;5.40;2.50;;;;;;;18.43;71.80;100942.22;5008941;28;102702;-48
2021/09/24 02:16:19;;;;;;;2.70;2.50;;;;;;;18.43;71.72;100939.47;5003337;27;102582;-48
2021/09/24 02:18:46;;;;;;;2.97;2.60;;;;;;;18.44;71.66;100934.78;5004188;27;102342;-48
2021/09/24 02:21:15;;;;;;;2.70;2.50;;;;;;;18.44;71.93;100946.59;4998836;28;103870;-48
2021/09/24 02:23:43;;;;;;;3.03;2.47;;;;;;;18.43;72.04;100939.47;5006272;27;102778;-48
2021/09/24 02:26:09;;;;;;;2.47;2.28;;;;;;;18.44;71.95;100940.28;5003283;27;102263;-49
2021/09/24 02:28:36;;;;;;;2.80;2.60;;;;;;;18.44;72.00;100929.25;5001960;27;102354;-48
2021/09/24 02:31:08;;;;;;;2.90;2.70;;;;;;;18.42;71.43;100924.06;5009460;27;103638;-48
2021/09/24 02:33:36;;;;;;;2.78;2.30;;;;;;;18.43;72.00;100927.66;5027729;27;101797;-48
2021/09/24 02:36:04;;;;;;;2.90;2.67;;;;;;;18.43;71.67;100913.88;5003477;28;102184;-48
2021/09/24 02:38:31;;;;;;;3.08;2.78;;;;;;;18.43;71.90;100905.59;5001243;28;102468;-48
2021/09/24 02:40:57;;;;;;;2.92;2.63;;;;;;;18.43;71.42;100911.91;4999553;28;103723;-49
2021/09/24 02:43:24;;;;;;;3.28;2.85;;;;;;;18.42;71.40;100910.28;5009022;28;102411;-48
2021/09/24 02:45:50;;;;;;;2.70;2.50;;;;;;;18.43;71.97;100900.09;5008382;27;102375;-48
2021/09/24 02:48:21;;;;;;;2.83;2.60;;;;;;;18.42;71.46;100899.25;5001822;28;102524;-48
2021/09/24 02:50:50;;;;;;;3.30;3.00;;;;;;;18.42;71.88;100892.94;5006832;28;104001;-50
2021/09/24 02:53:17;;;;;;;3.97;2.65;;;;;;;18.42;71.60;100893.75;5008793;28;102190;-49
2021/09/24 02:55:44;;;;;;;2.83;2.63;;;;;;;18.42;72.00;100893.75;5005024;27;102531;-50
2021/09/24 02:58:12;;;;;;;3.35;2.70;;;;;;;18.41;71.56;100892.13;5008540;28;102423;-50
2021/09/24 03:00:39;;;;;;;2.80;2.60;;;;;;;18.43;71.69;100889.06;5007389;28;102687;-49
2021/09/24 03:03:06;;;;;;;2.90;2.70;;;;;;;18.41;71.95;100889.38;5010644;28;102379;-48
2021/09/24 03:05:35;;;;;;;2.90;2.67;;;;;;;18.42;71.78;100893.75;5009523;28;102650;-48
2021/09/24 03:08:07;;;;;;;2.80;2.60;;;;;;;18.42;71.92;100896.50;5013240;27;102690;-49
2021/09/24 03:10:54;;;;;;;2.97;2.70;;;;;;;18.41;71.61;100889.38;5005375;28;104790;-50
2021/09/24 03:13:20;;;;;;;2.95;2.75;;;;;;;18.42;71.67;100890.19;5001551;28;102429;-48
2021/09/24 03:15:47;;;;;;;3.30;2.75;;;;;;;18.41;71.99;100886.63;5008659;28;102754;-47
2021/09/24 03:18:14;;;;;;;2.78;2.58;;;;;;;18.42;71.87;100892.94;5007464;28;102187;-48
2021/09/24 03:20:42;;;;;;;2.75;2.38;;;;;;;18.41;71.90;100892.13;4997493;28;103879;-48
2021/09/24 03:23:10;;;;;;;2.67;2.47;;;;;;;18.41;71.89;100885.81;5008514;28;102552;-48
2021/09/24 03:25:39;;;;;;;3.22;2.92;;;;;;;18.42;72.01;100884.66;5008360;28;102061;-48
2021/09/24 03:28:09;;;;;;;3.07;2.87;;;;;;;18.41;72.17;100875.59;5010618;28;102192;-48
2021/09/24 03:30:36;;;;;;;3.20;2.90;;;;;;;18.41;71.68;100870.09;5006502;28;103944;-48
2021/09/24 03:33:03;;;;;;;3.17;2.88;;;;;;;18.40;71.53;100862.94;5008664;28;102376;-48
2021/09/24 03:35:30;;;;;;;2.88;2.60;;;;;;;18.40;71.96;100851.94;5008197;28;103277;-48
2021/09/24 03:37:59;;;;;;;3.03;2.80;;;;;;;18.40;71.86;100851.94;4998919;28;102313;-49
2021/09/24 03:40:26;;;;;;;2.47;2.28;;;;;;;18.40;71.89;100846.41;5006316;28;103980;-49
2021/09/24 03:42:53;;;;;;;2.50;2.30;;;;;;;18.40;71.94;100851.94;5005876;28;102447;-50
2021/09/24 03:45:19;;;;;;;3.10;2.80;;;;;;;18.40;71.58;100849.19;5001199;28;102289;-48
2021/09/24 03:47:46;;;;;;;2.95;2.63;;;;;;;18.40;71.82;100840.91;5000939;28;102284;-48
2021/09/24 03:50:12;;;;;;;3.40;3.10;;;;;;;18.39;71.69;100853.06;4996722;28;104131;-48
2021/09/24 03:52:39;;;;;;;3.38;2.92;;;;;;;18.39;72.08;100847.56;5001730;28;102288;-48
2021/09/24 03:55:08;;;;;;;3.35;3.05;;;;;;;18.40;72.16;100848.38;5008526;28;102405;-48
2021/09/24 03:57:35;;;;;;;2.90;2.70;;;;;;;18.39;72.07;100858.59;5004968;28;102667;-49
2021/09/24 04:00:02;;;;;;;3.40;3.10;;;;;;;18.40;71.52;100851.94;5000039;27;104084;-48
2021/09/24 04:02:29;;;;;;;3.33;3.03;;;;;;;18.40;71.92;100842.88;5006105;28;102562;-49
2021/09/24 04:04:55;;;;;;;2.33;2.13;;;;;;;18.39;71.69;100850.31;5007559;27;102150;-49
2021/09/24 04:07:22;;;;;;;3.13;2.92;;;;;;;18.39;71.64;100852.25;4995050;28;102518;-48
2021/09/24 04:09:52;;;;;;;3.40;2.90;;;;;;;18.40;71.39;100860.19;5001777;28;103957;-48
2021/09/24 04:12:20;;;;;;;3.15;2.85;;;;;;;18.38;71.60;100859.69;5006239;27;104545;-50
2021/09/24 04:14:47;;;;;;;3.47;3.17;;;;;;;18.39;71.75;100855.84;4995218;28;102282;-48
2021/09/24 04:17:13;;;;;;;2.70;2.50;;;;;;;18.38;71.69;100843.16;5005681;27;102580;-49
2021/09/24 04:19:42;;;;;;;;;;;;;;;18.39;71.68;100850.31;5006140;28;103804;-51
2021/09/24 04:22:09;;;;;;;3.35;3.00;;;;;;;18.38;71.67;100832.13;5005653;28;102306;-48
2021/09/24 04:24:38;;;;;;;2.70;2.50;;;;;;;18.39;71.69;100828.28;5005173;28;102493;-47
2021/09/24 04:27:05;;;;;;;3.38;3.00;;;;;;;18.38;72.45;100832.13;5004947;27;102864;-49
2021/09/24 04:29:53;;;;;;;4.47;3.10;;;;;;;18.37;72.06;100830.53;4990702;28;104916;-49
2021/09/24 04:32:19;;;;;;;3.37;3.07;;;;;;;18.39;72.18;100832.94;4999132;28;102875;-50
2021/09/24 04:34:46;;;;;;;3.15;2.85;;;;;;;18.38;71.84;100820.31;5016746;27;103216;-49
2021/09/24 04:37:13;;;;;;;3.05;2.53;;;;;;;18.38;72.12;100809.28;5026218;27;102411;-47
2021/09/24 04:39:40;;;;;;;3.22;2.92;;;;;;;18.37;71.99;100816.75;5026825;27;104171;-49
2021/09/24 04:42:07;;;;;;;2.90;2.70;;;;;;;18.38;72.13;100831.34;5021257;27;102619;-48
2021/09/24 04:44:34;;;;;;;3.47;3.17;;;;;;;18.38;71.78;100826.63;5026046;27;102313;-48
2021/09/24 04:47:03;;;;;;;3.17;2.88;;;;;;;18.38;72.01;100812.03;5023491;27;102624;-50
2021/09/24 04:49:34;;;;;;;3.38;3.08;;;;;;;18.38;71.82;100804.59;5027286;27;104031;-49
2021/09/24 04:52:01;;;;;;;3.40;3.10;;;;;;;18.37;72.26;100800.22;5019202;27;102541;-49
2021/09/24 04:54:27;;;;;;;3.20;2.90;;;;;;;18.38;71.68;100810.09;5027328;27;102525;-50
2021/09/24 04:56:54;;;;;;;3.20;2.90;;;;;;;18.38;71.58;100807.34;5025983;27;102722;-48
2021/09/24 04:59:22;;;;;;;3.47;3.17;;;;;;;18.37;71.80;100808.47;5013782;27;104068;-48
2021/09/24 05:01:49;;;;;;;3.22;3.03;;;;;;;18.38;71.69;100804.59;5016890;28;102154;-50
2021/09/24 05:04:17;;;;;;;4.07;3.30;;;;;;;18.37;71.80;100802.16;5026937;27;102489;-48
2021/09/24 05:06:43;;;;;;;3.28;3.08;;;;;;;18.38;71.82;100814.81;5027948;27;102193;-48
2021/09/24 05:09:10;;;;;;;3.15;2.85;;;;;;;18.38;72.14;100814.81;5024759;27;103563;-48
2021/09/24 05:11:37;;;;;;;3.22;3.00;;;;;;;18.37;72.43;100819.50;5025500;27;102138;-49
2021/09/24 05:14:04;;;;;;;3.17;2.90;;;;;;;18.38;72.30;100815.59;5023230;27;102689;-48
2021/09/24 05:16:31;;;;;;;3.13;2.83;;;;;;;18.37;72.23;100802.16;5028280;27;102637;-48
2021/09/24 05:18:57;;;;;;;3.25;2.95;;;;;;;18.37;72.00;100797.47;5021782;27;104101;-48
2021/09/24 05:21:27;;;;;;;3.13;2.83;;;;;;;18.38;71.91;100793.56;5024549;27;103010;-48
2021/09/24 05:23:55;;;;;;;3.40;3.10;;;;;;;18.38;72.03;100790.81;5028726;27;102078;-48
2021/09/24 05:26:21;;;;;;;3.53;3.22;;;;;;;18.38;72.15;100799.06;5027042;27;102212;-47
2021/09/24 05:28:48;;;;;;;3.50;3.20;;;;;;;18.38;72.31;100792.75;5026106;27;103705;-49
2021/09/24 05:31:15;;;;;;;3.33;3.03;;;;;;;18.38;72.25;100793.56;5026136;27;102175;-48
2021/09/24 05:33:41;;;;;;;3.30;3.00;;;;;;;18.38;71.92;100796.31;5027540;27;102514;-48
2021/09/24 05:36:11;;;;;;;3.33;3.03;;;;;;;18.39;72.53;100786.94;5026304;27;102249;-48
2021/09/24 05:38:39;;;;;;;3.42;3.13;;;;;;;18.39;72.21;100795.22;5023805;27;103083;-48
2021/09/24 05:41:07;;;;;;;3.10;2.90;;;;;;;18.38;71.93;100807.34;5018753;27;102308;-48
2021/09/24 05:43:35;;;;;;;3.30;3.00;;;;;;;18.39;72.00;100811.75;5014446;28;102403;-50
2021/09/24 05:46:02;;;;;;;3.33;3.08;;;;;;;18.39;72.04;100811.75;5017727;27;102712;-49
2021/09/24 05:48:29;;;;;;;3.20;2.85;;;;;;;18.39;72.02;100828.28;5024015;27;103954;-48
2021/09/24 05:50:56;;;;;;;3.22;2.92;;;;;;;18.39;72.11;100828.28;5030701;27;105437;-48
2021/09/24 05:53:23;;;;;;;3.20;3.00;;;;;;;18.39;72.30;100827.44;5020984;27;102221;-48
2021/09/24 05:55:56;;;;;;;3.13;2.90;;;;;;;18.39;72.30;100831.03;5026208;27;102710;-48
2021/09/24 05:58:22;;;;;;;3.40;3.10;;;;;;;18.39;72.68;100833.78;5026711;27;104223;-48
2021/09/24 06:00:49;;;;;;;2.78;2.58;;;;;;;18.40;72.37;100826.31;5028847;27;102503;-49
2021/09/24 06:03:16;;;;;;;3.75;3.45;;;;;;;18.39;72.50;100822.75;5026865;27;102458;-48
2021/09/24 06:05:43;;;;;;;2.78;2.58;;;;;;;18.39;72.50;100817.25;5027210;27;102622;-49
2021/09/24 06:08:13;;;;;;;4.38;2.92;;;;;;;18.40;72.29;100823.56;5025462;27;103030;-48
2021/09/24 06:10:40;;;;;;;3.10;2.88;;;;;;;18.40;72.21;100815.31;5025398;27;102487;-48
2021/09/24 06:13:09;;;;;;;3.10;2.80;;;;;;;18.40;72.37;100813.34;5021776;27;102636;-47
2021/09/24 06:15:37;;;;;;;3.08;2.80;;;;;;;18.40;72.09;100802.34;5021816;27;104032;-49
2021/09/24 06:18:06;;;;;;;3.10;2.90;;;;;;;18.41;72.15;100814.97;5026449;27;103893;-48
2021/09/24 06:20:33;;;;;;;3.17;2.88;;;;;;;18.42;72.13;100810.25;5021740;27;103184;-48
2021/09/24 06:23:07;;;;;;;2.97;2.70;;;;;;;18.41;72.33;100820.47;5023160;27;102610;-49
2021/09/24 06:25:34;;;;;;;3.22;2.92;;;;;;;18.41;72.75;100820.47;5025327;27;102642;-48
2021/09/24 06:28:01;;;;;;;3.28;2.97;;;;;;;18.41;72.60;100826.00;5021100;27;103095;-48
2021/09/24 06:30:31;;;;;;;2.85;2.65;;;;;;;18.42;72.51;100830.38;5022366;27;102737;-49
2021/09/24 06:32:57;;;;;;;3.08;2.80;;;;;;;18.42;72.66;100833.13;5021498;28;102725;-49
2021/09/24 06:35:24;;;;;;;2.95;2.75;;;;;;;18.42;72.71;100832.31;5017233;27;102792;-50
2021/09/24 06:37:51;;;;;;;3.20;2.90;;;;;;;18.41;72.69;100831.50;5025946;27;103915;-48
2021/09/24 06:40:18;;;;;;;2.65;2.45;;;;;;;18.42;72.17;100827.59;5016699;27;102781;-50
2021/09/24 06:42:45;;;;;;;3.25;3.03;;;;;;;18.41;72.01;100820.47;5019753;27;102751;-49
2021/09/24 06:45:15;;;;;;;3.20;2.90;;;;;;;18.42;72.58;100805.56;5034224;27;103575;-49
2021/09/24 06:47:44;;;;;;;2.67;2.47;;;;;;;18.41;72.32;100803.94;5032781;27;103888;-49
2021/09/24 06:50:11;;;;;;;3.30;3.00;;;;;;;18.41;72.46;100795.69;5034049;27;102709;-48
2021/09/24 06:52:38;;;;;;;2.70;2.40;;;;;;;18.41;72.17;100787.41;5033624;27;102858;-50
2021/09/24 06:55:07;;;;;;;2.90;2.70;;;;;;;18.41;72.41;100781.91;5029809;27;102189;-49
2021/09/24 06:57:33;;;;;;;3.03;2.73;;;;;;;18.41;72.49;100781.91;5030121;27;103764;-49
2021/09/24 07:00:00;;;;;;;3.22;2.92;;;;;;;18.41;71.96;100781.91;5029100;27;102629;-48
2021/09/24 07:02:27;;;;;;;2.63;2.42;;;;;;;18.41;72.27;100770.88;5029280;27;102221;-50
2021/09/24 07:04:55;;;;;;;2.90;2.60;;;;;;;18.41;72.13;100775.59;5029563;27;102383;-50
2021/09/24 07:07:21;;;;;;;2.78;2.58;;;;;;;18.41;72.57;100770.88;5030539;27;103938;-48
2021/09/24 07:09:48;;;;;;;3.00;2.80;;;;;;;18.41;72.52;100759.88;5029869;27;102326;-48
2021/09/24 07:12:14;;;;;;;3.13;2.83;;;;;;;18.41;72.60;100754.34;5030771;27;102194;-51
2021/09/24 07:14:41;;;;;;;2.80;2.60;;;;;;;18.41;72.49;100746.09;5031725;27;102359;-48
2021/09/24 07:17:09;;;;;;;3.30;2.67;;;;;;;18.42;72.68;100744.13;5028944;27;103873;-48
2021/09/24 07:19:36;;;;;;;2.78;2.50;;;;;;;18.41;72.40;100739.75;5030115;27;102374;-49
2021/09/24 07:22:06;;;;;;;3.60;3.30;;;;;;;18.41;72.43;100728.75;5029619;27;102181;-48
2021/09/24 07:24:34;;;;;;;2.85;2.65;;;;;;;18.39;72.38;100720.81;5029698;27;102554;-48
2021/09/24 07:27:00;;;;;;;3.25;2.78;;;;;;;18.41;72.01;100714.97;5029569;27;103881;-47
2021/09/24 07:29:27;;;;;;;2.92;2.72;;;;;;;18.40;72.50;100707.84;5030710;27;102233;-48
2021/09/24 07:31:53;;;;;;;3.17;2.90;;;;;;;18.40;72.53;100697.63;5026944;27;103267;-48
2021/09/24 07:34:20;;;;;;;2.70;2.50;;;;;;;18.39;72.22;100673.97;5030852;27;102555;-47
2021/09/24 07:36:48;;;;;;;2.83;2.63;;;;;;;18.39;72.62;100679.50;5023904;27;103800;-48
2021/09/24 07:39:16;;;;;;;3.05;2.85;;;;;;;18.40;72.22;100667.31;5029305;27;102322;-48
2021/09/24 07:41:43;;;;;;;3.25;2.95;;;;;;;18.39;72.70;100660.19;5025253;27;103105;-48
2021/09/24 07:44:09;;;;;;;2.95;2.75;;;;;;;18.39;72.07;100646.44;5032249;27;102327;-47
2021/09/24 07:46:36;;;;;;;3.17;2.90;;;;;;;18.39;72.57;100646.44;5029854;27;103766;-50
2021/09/24 07:49:04;;;;;;;2.80;2.60;;;;;;;18.40;72.49;100641.72;5026586;27;102320;-49
2021/09/24 07:51:31;;;;;;;3.03;2.72;;;;;;;18.39;72.44;100640.91;5021984;27;102150;-48
2021/09/24 07:53:58;;;;;;;2.83;2.63;;;;;;;18.38;72.50;100649.50;5028914;28;102363;-48
2021/09/24 07:56:26;;;;;;;3.08;2.78;;;;;;;18.39;71.97;100643.66;5029470;27;104229;-48
2021/09/24 07:58:52;;;;;;;2.90;2.70;;;;;;;18.39;72.39;100646.44;5028982;27;102347;-49
2021/09/24 08:01:19;;;;;;;3.22;2.47;;;;;;;18.38;72.18;100650.28;5024540;27;102764;-48
2021/09/24 08:03:45;;;;;;;2.47;2.28;;;;;;;18.39;72.52;100646.44;5030723;27;102176;-48
2021/09/24 08:06:13;;;;;;;2.78;2.58;;;;;;;18.37;72.15;100637.66;5027417;27;104064;-50
2021/09/24 08:08:41;;;;;;;2.90;2.60;;;;;;;18.38;71.97;100639.28;5029560;27;102275;-48
2021/09/24 08:11:07;;;;;;;3.45;3.15;;;;;;;18.38;72.21;100638.47;5028196;27;102126;-49
2021/09/24 08:13:35;;;;;;;2.40;2.20;;;;;;;18.39;72.13;100634.56;5023704;27;102121;-48
2021/09/24 08:16:02;;;;;;;3.15;2.88;;;;;;;18.39;72.31;100634.56;5026804;27;104807;-48
2021/09/24 08:18:31;;;;;;;2.80;2.60;;;;;;;18.38;72.47;100630.19;5029168;27;102525;-48
2021/09/24 08:21:03;;;;;;;6.57;2.80;;;;;;;18.37;72.42;100632.16;5027499;27;102634;-48
2021/09/24 08:23:30;;;;;;;2.80;2.60;;;;;;;18.38;72.41;100621.94;5021819;27;105697;-48
2021/09/24 08:25:57;;;;;;;2.97;2.78;;;;;;;18.37;71.94;100615.63;5026971;27;104100;-48
2021/09/24 08:28:23;;;;;;;2.50;2.30;;;;;;;18.37;72.39;100610.09;5028039;27;102372;-50
2021/09/24 08:30:52;;;;;;;2.67;2.47;;;;;;;18.37;72.19;100626.63;5026517;27;102141;-48
2021/09/24 08:33:19;;;;;;;2.63;2.43;;;;;;;18.37;72.86;100623.88;5027699;28;102766;-48
2021/09/24 08:35:45;;;;;;;2.53;2.33;;;;;;;18.37;72.49;100615.63;5024273;27;103611;-48
2021/09/24 08:38:13;;;;;;;3.00;2.60;;;;;;;18.36;72.37;100605.75;5024508;28;102801;-48
2021/09/24 08:40:41;;;;;;;3.00;2.58;;;;;;;18.37;72.32;100599.09;5026497;27;102278;-50
2021/09/24 08:43:10;;;;;;;2.75;2.55;;;;;;;18.36;72.14;100586.47;5029347;27;102568;-47
2021/09/24 08:45:37;;;;;;;2.90;2.60;;;;;;;18.36;72.40;100586.47;5027445;27;108288;-48
2021/09/24 08:48:09;;;;;;;3.03;2.72;;;;;;;18.37;72.13;100582.56;5027480;28;102411;-49
2021/09/24 08:50:38;;;;;;;2.85;2.58;;;;;;;18.36;72.58;100575.44;5027629;27;102158;-48
2021/09/24 08:53:07;;;;;;;2.95;2.75;;;;;;;18.36;72.00;100569.94;5029260;27;102369;-47
2021/09/24 08:55:35;;;;;;;2.95;2.75;;;;;;;18.36;72.14;100567.16;5021309;27;104028;-49
2021/09/24 08:58:01;;;;;;;2.97;2.70;;;;;;;18.36;72.53;100564.41;5026772;27;102458;-48
2021/09/24 09:00:32;;;;;;;3.10;2.55;;;;;;;18.37;72.22;100562.47;5026200;28;102377;-49
2021/09/24 09:03:08;;;;;;;2.60;2.40;;;;;;;18.35;72.33;100551.75;5030345;27;102434;-48
2021/09/24 09:05:38;;;;;;;3.00;2.70;;;;;;;18.36;72.37;100558.91;5027508;27;103733;-48
2021/09/24 09:08:11;;;;;;;2.78;2.58;;;;;;;18.36;71.85;100552.59;5028775;27;102453;-49
2021/09/24 09:10:49;;;;;;;3.10;2.85;;;;;;;18.35;72.31;100537.97;5025203;27;102398;-48
2021/09/24 09:13:17;;;;;;;3.10;2.78;;;;;;;18.35;72.02;100529.72;5028789;27;102078;-49
2021/09/24 09:15:58;;;;;;;3.40;3.10;;;;;;;18.36;72.12;100525.03;5024714;27;103696;-48
2021/09/24 09:18:27;;;;;;;3.25;2.45;;;;;;;18.35;72.34;100509.63;5028051;27;102342;-48
2021/09/24 09:20:55;;;;;;;3.03;2.65;;;;;;;18.35;72.11;100509.63;5026862;27;102257;-49
2021/09/24 09:23:23;;;;;;;2.80;2.60;;;;;;;18.35;71.86;100518.69;5028676;27;102771;-48
2021/09/24 09:25:53;;;;;;;3.22;2.92;;;;;;;18.34;72.05;100517.09;5027262;27;103919;-49
2021/09/24 09:28:34;;;;;;;3.33;3.03;;;;;;;18.34;72.09;100511.56;5028980;27;102626;-48
2021/09/24 09:31:15;;;;;;;3.92;2.85;;;;;;;18.34;72.33;100511.56;5015441;27;102610;-48
2021/09/24 09:33:42;;;;;;;3.15;2.85;;;;;;;18.35;72.37;100510.44;5028020;27;102190;-49
2021/09/24 09:36:10;;;;;;;3.20;2.90;;;;;;;18.34;72.18;100508.81;5024294;27;103983;-49
2021/09/24 09:38:40;;;;;;;3.78;2.95;;;;;;;18.34;72.00;100516.28;5026872;27;102370;-50
2021/09/24 09:41:10;;;;;;;4.68;2.92;;;;;;;18.34;71.89;100519.84;5023850;27;102556;-48
2021/09/24 09:43:39;;;;;;;2.80;2.60;;;;;;;18.33;72.09;100518.22;5023517;27;102409;-48
2021/09/24 09:46:07;;;;;;;;;;;;;;;18.34;72.38;100510.78;5026672;27;104159;-50
2021/09/24 09:48:37;;;;;;;3.20;2.90;;;;;;;18.34;72.48;100500.56;5027999;27;102209;-49
2021/09/24 09:51:08;;;;;;;3.17;2.88;;;;;;;18.33;71.94;100504.47;5027577;27;102388;-51
2021/09/24 09:53:38;;;;;;;3.05;2.75;;;;;;;18.33;72.32;100507.22;5027890;27;102762;-50
2021/09/24 09:56:06;;;;;;;2.90;2.70;;;;;;;18.33;71.93;100501.72;5026800;27;104142;-48
2021/09/24 09:58:48;;;;;;;2.80;2.60;;;;;;;18.33;72.22;100498.94;5020154;27;102618;-49
2021/09/24 10:01:31;;;;;;;3.17;2.97;;;;;;;18.33;71.77;100498.94;5057771;27;102339;-49
2021/09/24 10:03:59;;;;;;;4.97;3.53;;;;;;;18.33;72.30;100484.38;5042305;27;102370;-49
2021/09/24 10:06:41;;;;;;;3.45;3.00;;;;;;;18.32;71.90;100475.31;4954256;27;102153;-49
2021/09/24 10:09:22;;;;;;;3.20;2.90;;;;;;;18.33;71.97;100473.34;5037740;27;102377;-48
2021/09/24 10:12:18;;;;;;;3.08;2.78;;;;;;;18.32;72.00;100463.44;4991418;27;102393;-49
2021/09/24 10:14:48;;;;;;;2.85;2.65;;;;;;;18.32;72.44;100468.97;4983497;28;102798;-48
2021/09/24 10:17:15;;;;;;;3.20;2.90;;;;;;;18.31;72.32;100468.16;4985177;28;103463;-48
2021/09/24 10:19:43;;;;;;;2.88;2.67;;;;;;;18.33;72.20;100465.91;4985114;28;102238;-49
2021/09/24 10:22:09;;;;;;;3.30;3.00;;;;;;;18.33;72.21;100467.84;4984033;28;103407;-49
2021/09/24 10:24:36;;;;;;;2.53;2.33;;;;;;;18.32;72.51;100455.19;4984973;28;103091;-50
2021/09/24 10:27:06;;;;;;;3.40;3.10;;;;;;;18.32;72.00;100463.44;4983601;28;103930;-47
2021/09/24 10:29:40;;;;;;;3.25;2.95;;;;;;;18.32;72.45;100458.78;4973158;28;102201;-49
2021/09/24 10:32:16;;;;;;;3.25;2.95;;;;;;;18.31;72.35;100459.88;4968471;28;102116;-48
2021/09/24 10:34:53;;;;;;;3.20;2.90;;;;;;;18.32;71.74;100471.72;4978332;28;103028;-51
2021/09/24 10:37:20;;;;;;;3.13;2.78;;;;;;;18.31;72.31;100451.63;4982671;28;103911;-49
2021/09/24 10:39:48;;;;;;;2.67;2.47;;;;;;;18.31;72.15;100448.06;4979484;28;102567;-49
2021/09/24 10:42:33;;;;;;;3.20;2.90;;;;;;;18.31;71.90;100445.31;4967932;28;102341;-49
2021/09/24 10:45:06;;;;;;;2.90;2.70;;;;;;;18.30;72.06;100439.00;4974463;28;102308;-48
2021/09/24 10:47:54;;;;;;;3.20;2.90;;;;;;;18.31;71.82;100445.31;4972908;28;103999;-49
2021/09/24 10:50:47;;;;;;;3.17;2.95;;;;;;;18.30;72.17;100443.69;4974767;28;102881;-49
2021/09/24 10:53:33;;;;;;;4.20;2.95;;;;;;;18.30;71.88;100450.00;4978798;28;102468;-48
2021/09/24 10:56:25;;;;;;;3.45;3.15;;;;;;;18.30;72.15;100454.72;4978962;28;103125;-48
2021/09/24 10:58:53;;;;;;;2.92;2.72;;;;;;;18.30;71.91;100449.22;4961063;28;108070;-48
2021/09/24 11:01:32;;;;;;;3.53;3.23;;;;;;;18.29;72.12;100453.91;4982825;28;102307;-48
2021/09/24 11:04:11;;;;;;;3.65;3.08;;;;;;;18.30;72.09;100455.53;4983989;28;105312;-47
2021/09/24 11:06:43;;;;;;;3.33;3.03;;;;;;;18.30;71.90;100465.75;4976584;28;102009;-49
2021/09/24 11:09:13;;;;;;;4.07;2.97;;;;;;;18.30;72.02;100463.78;4976760;28;103600;-48
2021/09/24 11:11:43;;;;;;;3.40;3.10;;;;;;;18.30;72.25;100461.03;4984176;28;102374;-48
2021/09/24 11:14:28;;;;;;;3.05;2.85;;;;;;;18.29;72.08;100470.44;4981254;28;102424;-48
2021/09/24 11:17:40;;;;;;;2.97;2.78;;;;;;;18.30;71.69;100471.25;4978630;28;102328;-49
2021/09/24 11:20:31;;;;;;;2.95;2.65;;;;;;;18.29;72.21;100470.44;4980538;28;102997;-49
2021/09/24 11:22:59;;;;;;;3.58;3.00;;;;;;;18.30;72.09;100469.31;4964423;28;102305;-48
2021/09/24 11:25:29;;;;;;;3.30;3.00;;;;;;;18.29;72.00;100473.19;4974572;28;102305;-48